Time;durP1;ratioP1;P1;durP2;ratioP2;P2;SDS_P1;SDS_P2;PMS_P1;PMS_P2;Temp;Humidity;BMP_temperature;BMP_pressure;BME280_temperature;BME280_humidity;BME280_pressure;Samples;Min_cycle;Max_cycle;Signal;HPM_P1;HPM_P2
2022/03/03 00:01:17;;;;;;;62.45;25.77;;;;;;;-1.01;77.00;100548.63;5019371;28;20096;-68
2022/03/03 00:03:43;;;;;;;61.28;25.17;;;;;;;-1.06;76.83;100540.97;5006915;28;20404;-67
2022/03/03 00:06:08;;;;;;;62.40;26.38;;;;;;;-1.09;76.88;100548.75;5019172;28;20048;-66
2022/03/03 00:08:34;;;;;;;56.63;25.95;;;;;;;-1.08;76.92;100550.44;5012331;28;20037;-66
2022/03/03 00:10:59;;;;;;;67.60;27.50;;;;;;;-1.08;77.09;100541.88;5007297;28;20034;-70
2022/03/03 00:13:24;;;;;;;58.33;25.20;;;;;;;-1.04;77.06;100543.53;5014736;28;20460;-68
2022/03/03 00:15:50;;;;;;;56.17;25.17;;;;;;;-1.05;76.70;100534.09;5013718;28;20053;-68
2022/03/03 00:18:15;;;;;;;58.17;26.42;;;;;;;-1.02;76.80;100532.34;5008903;28;20068;-68
2022/03/03 00:20:40;;;;;;;64.03;25.15;;;;;;;-1.08;76.54;100532.41;5012640;28;20042;-67
2022/03/03 00:23:06;;;;;;;53.03;24.15;;;;;;;-1.05;76.64;100546.97;5012645;28;20447;-70
2022/03/03 00:25:31;;;;;;;60.83;25.42;;;;;;;-1.10;76.57;100538.47;5012171;28;20048;-67
2022/03/03 00:27:56;;;;;;;60.53;25.52;;;;;;;-1.11;77.12;100539.34;5011306;28;20038;-65
2022/03/03 00:30:22;;;;;;;59.95;26.63;;;;;;;-1.13;76.89;100534.22;5022364;28;20116;-68
2022/03/03 00:32:47;;;;;;;68.65;26.92;;;;;;;-1.16;77.06;100520.56;5008465;28;20036;-68
2022/03/03 00:35:13;;;;;;;50.97;24.20;;;;;;;-1.16;76.53;100515.41;5024116;28;20037;-69
2022/03/03 00:37:39;;;;;;;56.53;24.52;;;;;;;-1.19;76.91;100511.16;5019605;28;20041;-69
2022/03/03 00:40:05;;;;;;;59.28;24.30;;;;;;;-1.30;76.12;100507.91;5009527;28;20577;-69
2022/03/03 00:42:31;;;;;;;59.03;26.25;;;;;;;-1.43;76.77;100509.81;5017727;28;20503;-67
2022/03/03 00:44:56;;;;;;;59.58;25.17;;;;;;;-1.50;77.31;100510.75;5025801;28;20053;-69
2022/03/03 00:47:22;;;;;;;60.47;26.98;;;;;;;-1.55;77.68;100502.28;5021029;28;20158;-68
2022/03/03 00:49:47;;;;;;;73.00;25.25;;;;;;;-1.55;77.54;100494.56;5031519;28;20048;-68
2022/03/03 00:52:12;;;;;;;67.47;27.00;;;;;;;-1.58;77.67;100498.03;5029474;28;20018;-70
2022/03/03 00:54:38;;;;;;;58.47;26.98;;;;;;;-1.55;77.92;100492.00;5011514;28;20537;-68
2022/03/03 00:57:03;;;;;;;78.10;27.33;;;;;;;-1.56;77.92;100490.28;5012193;28;20049;-68
2022/03/03 00:59:29;;;;;;;72.22;26.70;;;;;;;-1.57;78.76;100489.41;5012167;28;20034;-68
2022/03/03 01:01:54;;;;;;;69.10;28.30;;;;;;;-1.58;79.53;100479.19;5012667;28;20045;-68
2022/03/03 01:04:20;;;;;;;65.75;26.95;;;;;;;-1.52;80.05;100486.78;5011698;28;20049;-70
2022/03/03 01:06:45;;;;;;;67.30;27.20;;;;;;;-1.51;79.79;100497.06;5012483;28;20085;-66
2022/03/03 01:09:11;;;;;;;54.47;26.08;;;;;;;-1.56;80.48;100490.28;5011990;28;20037;-67
2022/03/03 01:11:36;;;;;;;61.90;26.92;;;;;;;-1.59;80.22;100493.75;5012939;28;20034;-67
2022/03/03 01:14:02;;;;;;;68.78;28.38;;;;;;;-1.65;80.43;100491.25;5009418;28;20450;-69
2022/03/03 01:16:27;;;;;;;66.20;27.30;;;;;;;-1.67;81.00;100497.28;5011977;28;20113;-67
2022/03/03 01:18:52;;;;;;;55.63;25.60;;;;;;;-1.69;80.56;100493.91;5012371;28;20502;-69
2022/03/03 01:21:18;;;;;;;58.13;26.70;;;;;;;-1.71;81.89;100489.63;5012109;28;20038;-67
2022/03/03 01:23:43;;;;;;;62.60;27.58;;;;;;;-1.68;82.19;100491.28;5011057;28;20038;-68
2022/03/03 01:26:08;;;;;;;56.20;25.75;;;;;;;-1.68;82.15;100487.88;5012362;28;20040;-68
2022/03/03 01:28:34;;;;;;;61.95;27.08;;;;;;;-1.66;81.63;100479.28;4999833;28;20062;-68
2022/03/03 01:31:00;;;;;;;57.33;25.35;;;;;;;-1.63;81.78;100483.50;5012114;28;20029;-68
2022/03/03 01:33:25;;;;;;;53.10;24.70;;;;;;;-1.66;81.38;100478.44;5010874;28;20053;-67
2022/03/03 01:35:51;;;;;;;57.10;25.52;;;;;;;-1.67;81.56;100474.16;5004479;28;20540;-69
2022/03/03 01:38:16;;;;;;;55.25;24.77;;;;;;;-1.71;81.52;100465.63;5011548;28;21651;-66
2022/03/03 01:40:41;;;;;;;58.10;24.58;;;;;;;-1.74;81.71;100466.53;5012272;28;20503;-68
2022/03/03 01:43:07;;;;;;;56.45;24.65;;;;;;;-1.77;81.71;100471.72;5003939;28;20037;-73
2022/03/03 01:45:32;;;;;;;55.63;24.45;;;;;;;-1.79;81.70;100463.16;5011944;28;20060;-67
2022/03/03 01:47:58;;;;;;;54.40;24.80;;;;;;;-1.84;82.00;100469.25;5005946;28;20117;-69
2022/03/03 01:50:23;;;;;;;62.35;25.92;;;;;;;-1.89;82.02;100461.59;5011617;28;20026;-66
2022/03/03 01:52:49;;;;;;;51.60;24.73;;;;;;;-1.93;82.73;100466.78;5011288;28;20044;-69
2022/03/03 01:55:14;;;;;;;53.80;25.25;;;;;;;-1.93;83.15;100461.66;5005936;28;20026;-69
2022/03/03 01:57:39;;;;;;;55.47;24.92;;;;;;;-1.91;82.78;100462.50;5001499;28;20148;-70
2022/03/03 02:00:07;;;;;;;54.65;26.20;;;;;;;-1.83;82.30;100463.22;5023759;22;23524;-70
2022/03/03 02:02:32;;;;;;;51.92;23.80;;;;;;;-1.79;82.32;100459.75;5035690;28;20037;-70
2022/03/03 02:04:57;;;;;;;44.35;22.35;;;;;;;-1.74;81.36;100470.84;5032529;28;20089;-70
2022/03/03 02:07:23;;;;;;;42.83;22.33;;;;;;;-1.76;81.14;100468.25;5049644;28;20030;-71
2022/03/03 02:09:48;;;;;;;47.60;24.35;;;;;;;-1.76;80.90;100473.41;5045577;28;20029;-71
2022/03/03 02:12:13;;;;;;;50.78;23.65;;;;;;;-1.77;80.95;100471.72;5017392;28;20034;-71
2022/03/03 02:14:44;;;;;;;50.17;23.92;;;;;;;-1.78;81.22;100469.16;5009118;28;20044;-69
2022/03/03 02:17:09;;;;;;;50.78;23.65;;;;;;;-1.79;81.46;100465.72;5003902;28;20034;-71
2022/03/03 02:19:35;;;;;;;46.65;22.80;;;;;;;-1.82;81.43;100457.22;5009660;28;20056;-71
2022/03/03 02:22:00;;;;;;;46.92;22.73;;;;;;;-1.86;81.58;100447.84;4986833;28;20057;-72
2022/03/03 02:24:25;;;;;;;50.33;22.33;;;;;;;-1.82;81.72;100440.06;5010821;28;20033;-71
2022/03/03 02:26:51;;;;;;;46.78;22.27;;;;;;;-1.81;81.70;100438.38;5012022;28;20034;-71
2022/03/03 02:29:16;;;;;;;48.10;22.63;;;;;;;-1.83;81.79;100435.81;5006332;28;20073;-70
2022/03/03 02:31:44;;;;;;;47.25;23.05;;;;;;;-1.89;81.85;100430.78;5011944;28;20042;-72
2022/03/03 02:34:10;;;;;;;54.22;23.70;;;;;;;-1.91;82.14;100439.38;5009334;28;20026;-70
2022/03/03 02:36:36;;;;;;;52.00;22.83;;;;;;;-1.98;82.01;100441.16;5008589;28;20032;-72
2022/03/03 02:39:04;;;;;;;46.45;23.55;;;;;;;-2.03;82.53;100437.81;5010301;28;20116;-73
2022/03/03 02:41:29;;;;;;;46.95;23.33;;;;;;;-2.09;82.03;100430.16;5011508;28;20121;-72
2022/03/03 02:43:56;;;;;;;46.80;24.10;;;;;;;-2.14;82.30;100434.53;5006487;28;20118;-70
2022/03/03 02:46:21;;;;;;;50.72;22.85;;;;;;;-2.17;82.25;100432.00;5010595;28;20030;-70
2022/03/03 02:48:47;;;;;;;52.72;22.27;;;;;;;-2.16;82.59;100436.25;5010637;28;20502;-73
2022/03/03 02:51:12;;;;;;;52.15;24.42;;;;;;;-2.16;83.14;100429.41;5009966;28;20065;-72
2022/03/03 02:53:38;;;;;;;49.25;22.08;;;;;;;-2.15;82.58;100422.53;5005456;28;20099;-70
2022/03/03 02:56:05;;;;;;;53.45;24.25;;;;;;;-2.13;83.00;100413.94;5011109;28;20038;-70
2022/03/03 02:58:31;;;;;;;51.75;23.33;;;;;;;-2.14;83.19;100417.41;5009998;28;20030;-71
2022/03/03 03:00:57;;;;;;;55.72;24.40;;;;;;;-2.21;82.54;100416.63;5010656;28;20045;-71
2022/03/03 03:03:22;;;;;;;49.67;23.27;;;;;;;-2.26;82.50;100430.41;4999597;28;20637;-70
2022/03/03 03:05:48;;;;;;;48.30;24.02;;;;;;;-2.33;82.54;100427.06;5010140;28;20037;-69
2022/03/03 03:08:14;;;;;;;50.78;24.65;;;;;;;-2.37;83.38;100432.22;5008207;28;20040;-67
2022/03/03 03:10:39;;;;;;;48.78;23.25;;;;;;;-2.38;82.97;100426.25;5010084;28;20087;-70
2022/03/03 03:13:06;;;;;;;61.20;24.02;;;;;;;-2.40;83.84;100422.84;5008444;28;20052;-69
2022/03/03 03:15:32;;;;;;;56.05;23.98;;;;;;;-2.39;84.13;100428.84;4993719;28;20033;-68
2022/03/03 03:18:13;;;;;;;51.22;23.60;;;;;;;-2.43;83.80;100422.88;5009265;28;20041;-67
2022/03/03 03:20:40;;;;;;;48.80;24.42;;;;;;;-2.41;84.03;100426.31;5009924;28;20061;-70
2022/03/03 03:23:10;;;;;;;45.80;23.00;;;;;;;-2.42;83.83;100418.59;4997827;28;20184;-69
2022/03/03 03:25:39;;;;;;;43.92;22.65;;;;;;;-2.45;84.00;100410.09;5009994;28;20034;-70
2022/03/03 03:28:05;;;;;;;51.83;24.02;;;;;;;-2.47;83.61;100426.34;5009115;28;20033;-71
2022/03/03 03:30:31;;;;;;;53.05;23.15;;;;;;;-2.45;84.26;100414.34;5009961;28;20076;-68
2022/03/03 03:32:56;;;;;;;61.42;23.08;;;;;;;-2.45;84.03;100414.34;5009185;28;20499;-72
2022/03/03 03:35:22;;;;;;;51.20;23.75;;;;;;;-2.49;83.70;100410.13;5009245;28;20133;-69
2022/03/03 03:37:48;;;;;;;62.83;23.67;;;;;;;-2.51;83.91;100404.16;5008663;28;20038;-70
2022/03/03 03:40:14;;;;;;;48.25;23.98;;;;;;;-2.53;83.69;100405.88;5006717;28;20037;-70
2022/03/03 03:42:41;;;;;;;48.65;22.30;;;;;;;-2.53;84.16;100400.75;5008992;28;20026;-70
2022/03/03 03:45:07;;;;;;;49.17;22.27;;;;;;;-2.58;83.65;100392.25;5009127;28;20045;-70
2022/03/03 03:47:32;;;;;;;50.33;22.95;;;;;;;-2.60;83.88;100392.25;4989298;28;20030;-70
2022/03/03 03:50:02;;;;;;;46.75;24.55;;;;;;;-2.64;83.64;100388.03;5007694;28;20041;-70
2022/03/03 03:52:27;;;;;;;;;;;;;;;-2.73;83.66;100395.84;5009604;28;20029;-70
2022/03/03 03:54:52;;;;;;;44.15;21.45;;;;;;;-2.77;83.33;100383.94;5009101;28;19910;-70
2022/03/03 03:57:17;;;;;;;52.78;24.70;;;;;;;-2.83;83.58;100386.53;5009406;28;20458;-71
2022/03/03 03:59:43;;;;;;;46.67;22.25;;;;;;;-2.84;84.13;100388.25;5008325;28;20037;-72
2022/03/03 04:02:08;;;;;;;48.85;22.77;;;;;;;-2.85;83.68;100393.44;5008536;28;20076;-70
2022/03/03 04:04:33;;;;;;;43.20;21.65;;;;;;;-2.88;84.02;100383.19;5008102;28;20053;-70
2022/03/03 04:06:58;;;;;;;46.20;22.58;;;;;;;-2.91;84.19;100386.63;5008857;28;20036;-69
2022/03/03 04:09:24;;;;;;;62.83;26.02;;;;;;;-2.93;84.81;100398.59;5009226;28;20557;-70
2022/03/03 04:11:49;;;;;;;49.60;24.48;;;;;;;-2.92;85.65;100392.63;5009024;28;20026;-69
2022/03/03 04:14:14;;;;;;;55.65;24.98;;;;;;;-2.90;85.13;100390.88;5007216;28;20096;-70
2022/03/03 04:16:40;;;;;;;47.63;23.15;;;;;;;-2.92;84.64;100396.03;4999167;28;20042;-71
2022/03/03 04:19:05;;;;;;;54.88;23.77;;;;;;;-2.92;84.94;100382.38;5008919;28;20041;-71
2022/03/03 04:21:31;;;;;;;55.97;23.90;;;;;;;-2.90;85.08;100388.31;5007911;28;20519;-72
2022/03/03 04:23:56;;;;;;;67.03;26.95;;;;;;;-2.91;85.40;100396.88;5007668;28;20041;-72
2022/03/03 04:26:22;;;;;;;56.03;25.52;;;;;;;-2.95;85.41;100402.91;5000836;28;20034;-72
2022/03/03 04:28:47;;;;;;;61.20;26.38;;;;;;;-2.97;85.83;100407.19;5008205;28;20415;-71
2022/03/03 04:31:12;;;;;;;49.85;24.52;;;;;;;-2.97;86.25;100395.22;5008770;28;20092;-70
2022/03/03 04:33:38;;;;;;;54.40;26.48;;;;;;;-2.92;86.24;100397.75;5008725;28;20395;-72
2022/03/03 04:36:05;;;;;;;61.45;25.25;;;;;;;-2.87;85.98;100390.00;5003598;28;20129;-73
2022/03/03 04:38:30;;;;;;;65.55;25.50;;;;;;;-2.82;86.06;100394.22;5008360;28;20044;-70
2022/03/03 04:40:55;;;;;;;53.15;23.70;;;;;;;-2.85;85.82;100389.13;5008068;28;20046;-71
2022/03/03 04:43:20;;;;;;;52.97;24.42;;;;;;;-2.85;85.80;100393.44;5006783;28;20682;-71
2022/03/03 04:45:46;;;;;;;49.90;23.33;;;;;;;-2.89;85.53;100390.03;5008918;28;20440;-70
2022/03/03 04:48:11;;;;;;;46.30;23.05;;;;;;;-2.91;85.78;100384.06;5008097;28;20056;-71
2022/03/03 04:50:36;;;;;;;50.72;21.90;;;;;;;-2.95;86.09;100379.84;5008351;28;20049;-71
2022/03/03 04:53:03;;;;;;;52.42;24.95;;;;;;;-2.95;86.93;100382.41;5006614;28;20045;-69
2022/03/03 04:55:29;;;;;;;52.92;22.83;;;;;;;-2.92;87.43;100379.81;4996282;28;20514;-71
2022/03/03 04:57:54;;;;;;;50.38;22.90;;;;;;;-2.86;87.49;100374.59;5004791;28;20026;-70
2022/03/03 05:00:20;;;;;;;49.05;24.25;;;;;;;-2.89;86.53;100369.53;5007996;28;20042;-70
2022/03/03 05:02:45;;;;;;;55.08;24.63;;;;;;;-2.95;86.36;100367.00;5008069;28;20427;-71
2022/03/03 05:05:11;;;;;;;55.97;23.10;;;;;;;-3.02;86.32;100358.53;4997037;28;20046;-73
2022/03/03 05:07:36;;;;;;;49.75;23.38;;;;;;;-3.06;86.19;100376.53;5007086;28;20042;-71
2022/03/03 05:10:03;;;;;;;55.65;24.85;;;;;;;-3.13;86.12;100374.88;5008622;28;20036;-71
2022/03/03 05:12:28;;;;;;;52.00;23.95;;;;;;;-3.14;86.86;100379.16;5007136;28;20054;-71
2022/03/03 05:14:53;;;;;;;45.80;23.48;;;;;;;-3.13;86.86;100373.16;5006831;28;20073;-70
2022/03/03 05:17:19;;;;;;;57.08;24.33;;;;;;;-3.14;87.07;100374.03;5008303;28;20435;-71
2022/03/03 05:19:44;;;;;;;48.90;23.75;;;;;;;-3.13;87.66;100378.28;5004742;28;20092;-70
2022/03/03 05:22:10;;;;;;;54.08;25.10;;;;;;;-3.12;87.63;100372.28;5002596;28;20073;-69
2022/03/03 05:24:35;;;;;;;49.30;23.55;;;;;;;-3.12;87.92;100368.88;5007329;28;20528;-70
2022/03/03 05:27:00;;;;;;;64.63;26.33;;;;;;;-3.10;87.30;100364.59;5008531;28;20423;-71
2022/03/03 05:29:27;;;;;;;57.30;23.00;;;;;;;-3.11;87.07;100363.75;4989914;28;20045;-71
2022/03/03 05:31:53;;;;;;;52.47;23.17;;;;;;;-3.11;86.92;100368.03;5008575;28;20095;-70
2022/03/03 05:34:18;;;;;;;57.03;26.45;;;;;;;-3.19;87.03;100357.84;5010833;28;20113;-71
2022/03/03 05:36:44;;;;;;;51.90;24.73;;;;;;;-3.19;86.79;100361.28;5012680;28;20028;-70
2022/03/03 05:39:09;;;;;;;54.83;25.95;;;;;;;-3.22;86.82;100360.44;4985713;28;20515;-71
2022/03/03 05:41:35;;;;;;;56.83;26.67;;;;;;;-3.25;87.71;100355.34;5003296;28;20061;-71
2022/03/03 05:44:01;;;;;;;59.83;25.95;;;;;;;-3.28;87.43;100355.38;5008178;28;20484;-69
2022/03/03 05:46:26;;;;;;;58.45;25.38;;;;;;;-3.31;87.01;100352.81;5001053;28;20033;-71
2022/03/03 05:48:52;;;;;;;55.55;25.70;;;;;;;-3.32;87.03;100363.97;5007239;28;20093;-70
2022/03/03 05:51:19;;;;;;;52.70;25.67;;;;;;;-3.36;86.79;100363.13;5008917;28;20064;-70
2022/03/03 05:53:44;;;;;;;52.55;24.70;;;;;;;-3.39;87.45;100357.19;5005690;28;20042;-69
2022/03/03 05:56:10;;;;;;;53.75;24.42;;;;;;;-3.33;87.35;100365.69;5007035;28;20395;-71
2022/03/03 05:58:47;;;;;;;56.83;24.88;;;;;;;-3.29;87.15;100374.19;4988749;28;20037;-71
2022/03/03 06:01:15;;;;;;;53.78;26.30;;;;;;;-3.31;87.19;100371.63;4999192;28;20050;-70
2022/03/03 06:03:41;;;;;;;47.60;24.30;;;;;;;-3.33;87.27;100370.81;4995387;28;20061;-71
2022/03/03 06:06:19;;;;;;;55.38;24.92;;;;;;;-3.30;86.76;100368.22;4990959;28;20042;-70
2022/03/03 06:09:14;;;;;;;45.65;22.77;;;;;;;-3.24;87.40;100364.72;5018258;28;20092;-72
2022/03/03 06:11:47;;;;;;;52.70;22.98;;;;;;;-3.14;87.33;100365.50;4987322;28;20049;-70
2022/03/03 06:14:19;;;;;;;51.80;22.30;;;;;;;-3.06;86.87;100368.84;5010054;28;20073;-70
2022/03/03 06:16:45;;;;;;;47.70;23.05;;;;;;;-3.06;86.76;100374.81;5011690;28;20040;-70
2022/03/03 06:19:11;;;;;;;57.55;24.30;;;;;;;-2.43;93.15;100379.25;5010107;28;20026;-70
2022/03/03 06:21:36;;;;;;;53.85;24.63;;;;;;;-2.68;86.87;100386.38;5011123;28;20105;-69
2022/03/03 06:24:02;;;;;;;54.25;23.65;;;;;;;-2.80;86.50;100377.09;5009653;28;20422;-69
2022/03/03 06:26:27;;;;;;;55.92;24.52;;;;;;;-2.87;86.72;100378.03;5011098;28;20125;-71
2022/03/03 06:28:53;;;;;;;60.28;23.08;;;;;;;-2.89;86.27;100374.66;5005221;28;20100;-68
2022/03/03 06:31:18;;;;;;;50.90;21.90;;;;;;;-2.86;86.21;100382.28;5009434;28;20040;-71
2022/03/03 06:33:44;;;;;;;51.85;26.23;;;;;;;-2.83;86.40;100387.38;5002899;28;20022;-70
2022/03/03 06:36:09;;;;;;;51.53;22.10;;;;;;;-2.77;86.43;100379.63;5007063;28;20040;-71
2022/03/03 06:38:35;;;;;;;51.83;23.17;;;;;;;-2.71;86.02;100384.72;4991981;28;20029;-70
2022/03/03 06:41:02;;;;;;;44.67;22.52;;;;;;;-2.62;85.96;100383.75;5009073;28;20033;-69
2022/03/03 06:43:29;;;;;;;44.78;21.52;;;;;;;-2.61;85.78;100382.88;4999492;28;20051;-72
2022/03/03 06:45:55;;;;;;;54.53;23.83;;;;;;;-2.56;85.71;100375.13;5008448;28;20479;-69
2022/03/03 06:48:20;;;;;;;48.00;20.75;;;;;;;-2.55;85.40;100376.84;5008588;28;20042;-70
2022/03/03 06:50:50;;;;;;;48.75;22.70;;;;;;;-2.46;84.74;100377.56;5009337;28;20046;-71
2022/03/03 06:53:17;;;;;;;44.72;21.00;;;;;;;-2.45;85.09;100375.81;4991999;28;20037;-70
2022/03/03 06:55:44;;;;;;;53.55;22.45;;;;;;;-2.41;84.70;100372.38;5005455;28;20514;-69
2022/03/03 06:58:11;;;;;;;56.47;23.02;;;;;;;-2.38;84.40;100380.03;4995338;28;20121;-71
2022/03/03 07:00:37;;;;;;;53.90;22.65;;;;;;;-2.39;84.66;100383.47;5005306;28;20180;-70
2022/03/03 07:03:04;;;;;;;58.85;22.85;;;;;;;-2.39;84.28;100372.34;5007947;28;20235;-69
2022/03/03 07:05:30;;;;;;;57.92;23.80;;;;;;;-2.35;84.48;100380.00;5003865;28;20030;-70
2022/03/03 07:07:57;;;;;;;51.50;23.48;;;;;;;-2.36;84.31;100383.44;5001314;28;20037;-71
2022/03/03 07:10:26;;;;;;;50.55;22.02;;;;;;;-2.30;84.50;100375.66;4996230;28;20026;-71
2022/03/03 07:12:53;;;;;;;43.78;22.60;;;;;;;-2.26;84.10;100376.47;5004741;28;20595;-69
2022/03/03 07:15:19;;;;;;;54.63;22.90;;;;;;;-2.18;83.65;100392.63;5008957;28;20034;-69
2022/03/03 07:17:51;;;;;;;43.38;21.33;;;;;;;-2.08;82.93;100389.03;5009831;28;20452;-71
2022/03/03 07:20:29;;;;;;;51.10;22.52;;;;;;;-1.96;82.49;100391.47;5008888;28;20044;-68
2022/03/03 07:23:08;;;;;;;42.28;21.55;;;;;;;-1.83;81.98;100391.28;5001283;28;20042;-70
2022/03/03 07:25:43;;;;;;;42.78;21.05;;;;;;;-1.80;82.18;100389.50;5009044;28;20041;-71
2022/03/03 07:28:10;;;;;;;44.15;21.30;;;;;;;-1.80;81.13;100392.09;5008970;28;20025;-72
2022/03/03 07:30:40;;;;;;;39.92;20.27;;;;;;;-1.80;81.74;100391.25;5002140;28;20079;-72
2022/03/03 07:33:10;;;;;;;41.95;20.88;;;;;;;-1.74;82.18;100384.28;5003456;28;20150;-69
2022/03/03 07:35:35;;;;;;;40.28;20.02;;;;;;;-1.64;81.73;100390.13;5004079;28;20037;-70
2022/03/03 07:38:13;;;;;;;40.10;21.40;;;;;;;-1.58;81.11;100387.47;5003994;28;20042;-70
2022/03/03 07:40:41;;;;;;;45.35;21.15;;;;;;;-1.50;81.11;100390.75;5001258;28;20118;-71
2022/03/03 07:43:06;;;;;;;46.85;20.98;;;;;;;-1.40;80.82;100383.75;5007295;28;20030;-71
2022/03/03 07:45:31;;;;;;;43.42;21.25;;;;;;;-1.29;80.80;100383.59;5002494;28;20045;-71
2022/03/03 07:47:57;;;;;;;43.25;20.83;;;;;;;-1.25;80.46;100377.50;5000912;28;20053;-70
2022/03/03 07:50:24;;;;;;;43.30;20.48;;;;;;;-1.20;80.43;100377.41;5005717;28;20041;-70
2022/03/03 07:52:50;;;;;;;42.30;19.95;;;;;;;-1.12;80.06;100378.13;5008065;28;20797;-70
2022/03/03 07:55:16;;;;;;;49.00;21.83;;;;;;;-1.07;79.93;100389.22;4989989;28;20494;-69
2022/03/03 07:57:58;;;;;;;41.50;20.25;;;;;;;-1.07;79.44;100391.78;4990756;28;20091;-71
2022/03/03 08:00:24;;;;;;;39.20;19.73;;;;;;;-0.99;80.03;100387.34;5033713;23;20030;-70
2022/03/03 08:02:53;;;;;;;42.72;19.42;;;;;;;-0.88;79.61;100389.72;5009657;28;20109;-69
2022/03/03 08:05:21;;;;;;;45.28;20.92;;;;;;;-0.82;79.32;100376.72;5009225;28;20108;-70
2022/03/03 08:07:48;;;;;;;38.75;21.13;;;;;;;-0.67;77.72;100375.56;5016741;28;20049;-69
2022/03/03 08:10:15;;;;;;;38.72;20.35;;;;;;;-0.56;76.55;100373.63;5028653;28;20029;-69
2022/03/03 08:12:42;;;;;;;36.50;19.05;;;;;;;-0.49;76.01;100368.34;5008255;28;20021;-72
2022/03/03 08:15:08;;;;;;;41.90;19.75;;;;;;;-0.43;76.06;100371.69;5008525;28;20045;-68
2022/03/03 08:17:34;;;;;;;43.03;20.98;;;;;;;-0.38;75.79;100380.16;5008855;28;20474;-69
2022/03/03 08:20:02;;;;;;;41.55;20.02;;;;;;;-0.34;76.05;100381.78;4991155;28;20121;-68
2022/03/03 08:22:28;;;;;;;37.67;19.48;;;;;;;-0.29;75.97;100375.66;5008683;28;20052;-71
2022/03/03 08:24:55;;;;;;;47.30;21.20;;;;;;;-0.15;75.64;100377.97;5008032;28;20026;-68
2022/03/03 08:27:22;;;;;;;39.25;19.70;;;;;;;-0.03;75.08;100388.00;4999982;28;20034;-68
2022/03/03 08:29:47;;;;;;;40.10;20.15;;;;;;;0.05;74.84;100390.41;5007532;28;20571;-69
2022/03/03 08:32:16;;;;;;;45.67;22.73;;;;;;;0.12;75.26;100397.13;5007692;28;20117;-69
2022/03/03 08:34:45;;;;;;;39.58;19.23;;;;;;;0.19;74.65;100393.53;5007459;28;20534;-69
2022/03/03 08:37:27;;;;;;;41.30;19.70;;;;;;;0.28;74.20;100379.56;5006357;28;20057;-70
2022/03/03 08:39:52;;;;;;;34.35;18.23;;;;;;;0.42;73.26;100386.97;5009181;28;20618;-70
2022/03/03 08:42:23;;;;;;;38.33;18.98;;;;;;;0.45;73.47;100385.19;5008908;28;20061;-68
2022/03/03 08:44:52;;;;;;;43.08;20.52;;;;;;;0.54;73.26;100391.84;5007722;28;20113;-68
2022/03/03 08:47:21;;;;;;;39.05;19.52;;;;;;;0.60;73.32;100391.69;5010424;28;20030;-68
2022/03/03 08:49:53;;;;;;;31.00;18.88;;;;;;;0.67;73.14;100379.50;5010019;28;20513;-71
2022/03/03 08:52:18;;;;;;;37.13;16.92;;;;;;;0.76;71.62;100399.91;5010603;28;20388;-68
2022/03/03 08:54:44;;;;;;;38.15;19.38;;;;;;;0.84;70.99;100395.38;5009681;28;20032;-71
2022/03/03 08:57:09;;;;;;;45.30;20.40;;;;;;;0.93;70.91;100402.06;5009539;28;20042;-68
2022/03/03 08:59:34;;;;;;;39.90;19.95;;;;;;;1.02;70.60;100395.81;5008671;28;20034;-70
2022/03/03 09:02:00;;;;;;;35.30;18.75;;;;;;;1.09;70.52;100395.63;5008704;28;20489;-70
2022/03/03 09:04:25;;;;;;;40.40;19.15;;;;;;;1.13;70.23;100393.78;5007684;28;20014;-69
2022/03/03 09:06:51;;;;;;;39.65;19.40;;;;;;;1.21;70.26;100400.44;5010563;28;20026;-69
2022/03/03 09:09:16;;;;;;;44.08;18.92;;;;;;;1.28;70.98;100397.69;5013314;28;20255;-68
2022/03/03 09:11:41;;;;;;;39.92;19.80;;;;;;;1.37;69.83;100406.06;5013645;28;20030;-69
2022/03/03 09:14:07;;;;;;;42.40;19.30;;;;;;;1.44;69.29;100401.56;5011263;28;20077;-72
2022/03/03 09:16:34;;;;;;;47.45;19.58;;;;;;;1.53;68.62;100395.31;5013220;28;20109;-71
2022/03/03 09:18:59;;;;;;;38.65;18.63;;;;;;;1.62;67.60;100401.03;5012859;28;20044;-71
2022/03/03 09:21:24;;;;;;;36.90;18.13;;;;;;;1.73;67.48;100398.16;5009559;28;20472;-68
2022/03/03 09:23:49;;;;;;;37.88;19.17;;;;;;;1.80;66.68;100399.66;4992296;28;20365;-70
2022/03/03 09:26:15;;;;;;;36.85;17.50;;;;;;;1.89;66.20;100390.78;5013417;28;20033;-70
2022/03/03 09:28:40;;;;;;;37.72;18.50;;;;;;;1.99;65.88;100391.38;5011739;28;20037;-70
2022/03/03 09:31:06;;;;;;;36.10;18.63;;;;;;;2.05;66.08;100398.94;5014033;28;20048;-71
2022/03/03 09:33:31;;;;;;;35.53;17.08;;;;;;;2.16;65.26;100400.31;4999667;28;20022;-69
2022/03/03 09:35:56;;;;;;;45.38;18.05;;;;;;;2.31;64.78;100396.41;5013450;28;20415;-69
2022/03/03 09:38:22;;;;;;;36.25;18.08;;;;;;;2.40;64.62;100393.53;5011715;28;20116;-71
2022/03/03 09:40:50;;;;;;;41.28;17.85;;;;;;;2.49;64.48;100395.00;5010745;28;20053;-67
2022/03/03 09:43:16;;;;;;;36.08;18.30;;;;;;;2.60;64.62;100395.50;4993680;28;20044;-70
2022/03/03 09:45:42;;;;;;;37.95;19.27;;;;;;;2.72;64.00;100385.63;4999807;28;20026;-69
2022/03/03 09:48:09;;;;;;;44.88;20.70;;;;;;;2.84;63.90;100383.47;5008777;28;20127;-70
2022/03/03 09:50:37;;;;;;;47.22;19.30;;;;;;;2.95;63.37;100390.03;5012642;28;20077;-70
2022/03/03 09:53:08;;;;;;;36.80;17.77;;;;;;;3.02;63.33;100383.75;5010212;28;20030;-70
2022/03/03 09:55:34;;;;;;;35.80;18.25;;;;;;;3.13;62.51;100384.22;5011937;28;20038;-69
2022/03/03 09:58:02;;;;;;;37.95;18.48;;;;;;;3.18;62.44;100378.88;5009939;28;20033;-69
2022/03/03 10:00:33;;;;;;;37.45;18.35;;;;;;;3.25;62.89;100377.75;5011038;28;20103;-69
2022/03/03 10:03:10;;;;;;;40.78;18.65;;;;;;;3.33;62.75;100383.50;5010447;28;20034;-68
2022/03/03 10:05:38;;;;;;;34.20;18.10;;;;;;;3.41;62.73;100371.13;5012092;28;20041;-69
2022/03/03 10:08:09;;;;;;;42.30;21.45;;;;;;;3.53;61.94;100373.28;5010750;28;20038;-70
2022/03/03 10:10:37;;;;;;;50.90;23.27;;;;;;;3.58;61.58;100365.34;5011619;28;20038;-71
2022/03/03 10:13:03;;;;;;;44.72;21.10;;;;;;;3.76;63.07;100374.19;5010142;28;20084;-70
2022/03/03 10:15:30;;;;;;;34.17;16.77;;;;;;;3.83;61.55;100367.88;5011186;28;20057;-71
2022/03/03 10:18:02;;;;;;;40.45;18.70;;;;;;;3.91;60.16;100360.63;5006855;28;20038;-69
2022/03/03 10:20:29;;;;;;;34.88;16.98;;;;;;;4.03;58.08;100361.91;5007314;28;20113;-69
2022/03/03 10:22:58;;;;;;;31.40;15.75;;;;;;;4.05;55.92;100355.75;5009915;28;20034;-69
2022/03/03 10:25:44;;;;;;;36.08;16.77;;;;;;;4.12;55.78;100364.16;5007818;28;20033;-68
2022/03/03 10:28:14;;;;;;;33.53;14.95;;;;;;;4.20;54.72;100358.66;5008271;28;20025;-71
2022/03/03 10:31:01;;;;;;;38.10;16.45;;;;;;;4.25;54.18;100348.94;5011553;28;20050;-70
2022/03/03 10:33:29;;;;;;;34.08;16.63;;;;;;;4.32;55.27;100363.34;5009400;28;20480;-70
2022/03/03 10:35:58;;;;;;;29.33;14.90;;;;;;;4.39;55.41;100358.78;5007656;28;20119;-69
2022/03/03 10:38:23;;;;;;;52.63;19.13;;;;;;;4.48;55.20;100363.56;5007214;28;20066;-69
2022/03/03 10:40:49;;;;;;;35.42;15.88;;;;;;;4.53;54.31;100361.66;5010354;28;20061;-69
2022/03/03 10:43:14;;;;;;;34.75;15.77;;;;;;;4.67;54.15;100358.47;5008716;28;20109;-70
2022/03/03 10:46:00;;;;;;;36.13;16.77;;;;;;;4.60;53.96;100358.75;5011106;28;20026;-69
2022/03/03 10:48:27;;;;;;;35.75;16.80;;;;;;;4.65;53.12;100357.69;5010025;28;20026;-71
2022/03/03 10:50:58;;;;;;;36.28;15.80;;;;;;;4.75;53.29;100362.47;5010267;28;20040;-65
2022/03/03 10:53:25;;;;;;;33.80;15.65;;;;;;;4.84;53.50;100361.22;5007860;28;20034;-69
2022/03/03 10:56:18;;;;;;;34.40;15.18;;;;;;;4.91;53.31;100346.22;5010556;28;20038;-68
2022/03/03 10:58:58;;;;;;;41.25;15.57;;;;;;;5.03;52.88;100354.31;5004141;28;20057;-70
2022/03/03 11:01:29;;;;;;;32.28;15.05;;;;;;;5.09;52.66;100350.63;5008445;28;20117;-71
2022/03/03 11:03:55;;;;;;;33.42;16.00;;;;;;;5.15;51.31;100355.53;5009437;28;20037;-70
2022/03/03 11:06:24;;;;;;;32.03;15.93;;;;;;;5.18;50.48;100344.19;5009787;28;20514;-69
2022/03/03 11:08:51;;;;;;;28.15;14.93;;;;;;;5.24;50.91;100349.97;5009129;28;20038;-68
2022/03/03 11:11:17;;;;;;;35.45;15.68;;;;;;;5.25;50.50;100349.03;5009516;28;20499;-69